sensor_id;sensor_type;location;lat;lon;timestamp;temperature;humidity
35645;DHT22;21764;52.042;6.830;2023-02-20T00:04:58;5.90;99.90
35645;DHT22;21764;52.042;6.830;2023-02-20T00:09:59;5.80;99.90
35645;DHT22;21764;52.042;6.830;2023-02-20T00:14:59;5.80;99.90
35645;DHT22;21764;52.042;6.830;2023-02-20T00:20:01;5.80;99.90
35645;DHT22;21764;52.042;6.830;2023-02-20T00:25:02;5.80;99.90
35645;DHT22;21764;52.042;6.830;2023-02-20T00:30:04;5.80;99.90
35645;DHT22;21764;52.042;6.830;2023-02-20T00:35:05;5.80;99.90
35645;DHT22;21764;52.042;6.830;2023-02-20T00:40:07;5.80;99.90
35645;DHT22;21764;52.042;6.830;2023-02-20T00:45:08;5.70;99.90
35645;DHT22;21764;52.042;6.830;2023-02-20T00:50:10;5.80;99.90
35645;DHT22;21764;52.042;6.830;2023-02-20T00:55:13;5.80;99.90
35645;DHT22;21764;52.042;6.830;2023-02-20T01:00:40;5.90;99.90
35645;DHT22;21764;52.042;6.830;2023-02-20T01:05:41;6.00;99.90
35645;DHT22;21764;52.042;6.830;2023-02-20T01:10:41;6.10;99.90
35645;DHT22;21764;52.042;6.830;2023-02-20T01:15:42;6.20;99.90
35645;DHT22;21764;52.042;6.830;2023-02-20T01:20:43;6.20;99.90
35645;DHT22;21764;52.042;6.830;2023-02-20T01:25:43;6.20;99.90
35645;DHT22;21764;52.042;6.830;2023-02-20T01:30:44;6.10;99.90
35645;DHT22;21764;52.042;6.830;2023-02-20T01:35:45;6.10;99.90
35645;DHT22;21764;52.042;6.830;2023-02-20T01:40:47;6.10;99.90
35645;DHT22;21764;52.042;6.830;2023-02-20T01:45:51;6.10;99.90
35645;DHT22;21764;52.042;6.830;2023-02-20T01:50:55;6.10;99.90
35645;DHT22;21764;52.042;6.830;2023-02-20T01:56:00;6.10;99.90
35645;DHT22;21764;52.042;6.830;2023-02-20T02:01:02;5.80;99.90
35645;DHT22;21764;52.042;6.830;2023-02-20T02:06:05;5.60;99.90
35645;DHT22;21764;52.042;6.830;2023-02-20T02:11:09;5.60;99.90
35645;DHT22;21764;52.042;6.830;2023-02-20T02:43:26;5.30;99.90
35645;DHT22;21764;52.042;6.830;2023-02-20T02:48:53;5.20;99.90
35645;DHT22;21764;52.042;6.830;2023-02-20T02:59:12;5.20;99.90
35645;DHT22;21764;52.042;6.830;2023-02-20T03:04:14;5.20;99.90
35645;DHT22;21764;52.042;6.830;2023-02-20T03:09:34;5.10;99.90
35645;DHT22;21764;52.042;6.830;2023-02-20T03:20:14;5.20;99.90
35645;DHT22;21764;52.042;6.830;2023-02-20T03:25:25;5.30;99.90
35645;DHT22;21764;52.042;6.830;2023-02-20T03:35:38;5.50;99.90
35645;DHT22;21764;52.042;6.830;2023-02-20T03:40:58;5.50;99.90
35645;DHT22;21764;52.042;6.830;2023-02-20T03:46:20;5.40;99.90
35645;DHT22;21764;52.042;6.830;2023-02-20T03:51:22;5.50;99.90
35645;DHT22;21764;52.042;6.830;2023-02-20T03:56:27;5.50;99.90
35645;DHT22;21764;52.042;6.830;2023-02-20T04:01:31;5.70;99.90
35645;DHT22;21764;52.042;6.830;2023-02-20T04:06:34;6.00;99.90
35645;DHT22;21764;52.042;6.830;2023-02-20T04:11:59;6.10;99.90
35645;DHT22;21764;52.042;6.830;2023-02-20T04:17:06;6.20;99.90
35645;DHT22;21764;52.042;6.830;2023-02-20T04:22:14;6.30;99.90
35645;DHT22;21764;52.042;6.830;2023-02-20T04:27:17;6.40;99.90
35645;DHT22;21764;52.042;6.830;2023-02-20T04:32:18;6.40;99.90
35645;DHT22;21764;52.042;6.830;2023-02-20T04:37:19;6.50;99.90
35645;DHT22;21764;52.042;6.830;2023-02-20T04:42:20;6.50;99.90
35645;DHT22;21764;52.042;6.830;2023-02-20T04:47:20;6.50;99.90
35645;DHT22;21764;52.042;6.830;2023-02-20T04:52:23;6.60;99.90
35645;DHT22;21764;52.042;6.830;2023-02-20T04:57:24;6.60;99.90
35645;DHT22;21764;52.042;6.830;2023-02-20T05:02:24;6.60;99.90
35645;DHT22;21764;52.042;6.830;2023-02-20T05:07:25;6.60;99.90
35645;DHT22;21764;52.042;6.830;2023-02-20T05:12:26;6.60;99.90
35645;DHT22;21764;52.042;6.830;2023-02-20T05:17:26;6.60;99.90
35645;DHT22;21764;52.042;6.830;2023-02-20T05:22:27;6.70;99.90
35645;DHT22;21764;52.042;6.830;2023-02-20T05:27:28;6.70;99.90
35645;DHT22;21764;52.042;6.830;2023-02-20T05:32:29;6.70;99.90
35645;DHT22;21764;52.042;6.830;2023-02-20T05:37:30;6.70;99.90
35645;DHT22;21764;52.042;6.830;2023-02-20T05:42:31;6.70;99.90
35645;DHT22;21764;52.042;6.830;2023-02-20T05:47:31;6.70;99.90
35645;DHT22;21764;52.042;6.830;2023-02-20T05:52:32;6.70;99.90
35645;DHT22;21764;52.042;6.830;2023-02-20T05:57:33;6.70;99.90
35645;DHT22;21764;52.042;6.830;2023-02-20T06:02:34;6.80;99.90
35645;DHT22;21764;52.042;6.830;2023-02-20T06:07:35;6.80;99.90
35645;DHT22;21764;52.042;6.830;2023-02-20T06:12:36;6.80;99.90
35645;DHT22;21764;52.042;6.830;2023-02-20T06:17:38;6.80;99.90
35645;DHT22;21764;52.042;6.830;2023-02-20T06:22:39;6.90;99.90
35645;DHT22;21764;52.042;6.830;2023-02-20T06:27:39;6.90;99.90
35645;DHT22;21764;52.042;6.830;2023-02-20T06:32:40;7.00;99.90
35645;DHT22;21764;52.042;6.830;2023-02-20T06:37:41;7.00;99.90
35645;DHT22;21764;52.042;6.830;2023-02-20T06:42:41;7.10;99.90
35645;DHT22;21764;52.042;6.830;2023-02-20T06:47:42;7.10;99.90
35645;DHT22;21764;52.042;6.830;2023-02-20T06:52:43;7.10;99.90
35645;DHT22;21764;52.042;6.830;2023-02-20T06:57:43;7.10;99.90
35645;DHT22;21764;52.042;6.830;2023-02-20T07:02:44;7.10;99.90
35645;DHT22;21764;52.042;6.830;2023-02-20T07:07:44;7.20;99.90
35645;DHT22;21764;52.042;6.830;2023-02-20T07:12:45;7.20;99.90
35645;DHT22;21764;52.042;6.830;2023-02-20T07:17:46;7.30;99.90
35645;DHT22;21764;52.042;6.830;2023-02-20T07:22:51;7.30;99.90
35645;DHT22;21764;52.042;6.830;2023-02-20T07:27:53;7.30;99.90
35645;DHT22;21764;52.042;6.830;2023-02-20T07:32:54;7.40;99.90
35645;DHT22;21764;52.042;6.830;2023-02-20T07:37:54;7.40;99.90
35645;DHT22;21764;52.042;6.830;2023-02-20T07:42:55;7.50;99.90
35645;DHT22;21764;52.042;6.830;2023-02-20T07:47:55;7.60;99.90
35645;DHT22;21764;52.042;6.830;2023-02-20T07:52:56;7.60;99.90
35645;DHT22;21764;52.042;6.830;2023-02-20T07:57:58;7.70;99.90
35645;DHT22;21764;52.042;6.830;2023-02-20T08:03:00;7.80;99.90
35645;DHT22;21764;52.042;6.830;2023-02-20T08:08:00;7.80;99.90
35645;DHT22;21764;52.042;6.830;2023-02-20T08:13:01;7.90;99.90
35645;DHT22;21764;52.042;6.830;2023-02-20T08:18:02;7.90;99.90
35645;DHT22;21764;52.042;6.830;2023-02-20T08:23:04;8.00;99.90
35645;DHT22;21764;52.042;6.830;2023-02-20T08:28:05;8.10;99.90
35645;DHT22;21764;52.042;6.830;2023-02-20T08:33:06;8.20;99.90
35645;DHT22;21764;52.042;6.830;2023-02-20T08:38:25;8.20;99.90
35645;DHT22;21764;52.042;6.830;2023-02-20T08:43:28;8.30;99.90
35645;DHT22;21764;52.042;6.830;2023-02-20T08:48:29;8.40;99.90
35645;DHT22;21764;52.042;6.830;2023-02-20T08:53:30;8.50;99.90
35645;DHT22;21764;52.042;6.830;2023-02-20T08:58:31;8.50;99.90
35645;DHT22;21764;52.042;6.830;2023-02-20T09:03:31;8.50;99.90
35645;DHT22;21764;52.042;6.830;2023-02-20T09:08:34;8.60;99.90
35645;DHT22;21764;52.042;6.830;2023-02-20T09:13:43;8.70;99.90
35645;DHT22;21764;52.042;6.830;2023-02-20T09:18:44;8.80;99.90
35645;DHT22;21764;52.042;6.830;2023-02-20T09:23:45;8.70;99.90
35645;DHT22;21764;52.042;6.830;2023-02-20T09:28:46;8.90;99.90
35645;DHT22;21764;52.042;6.830;2023-02-20T09:33:47;9.10;99.90
35645;DHT22;21764;52.042;6.830;2023-02-20T09:38:47;9.30;99.90
35645;DHT22;21764;52.042;6.830;2023-02-20T09:44:17;9.60;99.90
35645;DHT22;21764;52.042;6.830;2023-02-20T09:49:25;9.60;99.90
35645;DHT22;21764;52.042;6.830;2023-02-20T09:54:39;9.60;99.90
35645;DHT22;21764;52.042;6.830;2023-02-20T10:00:05;9.50;99.90
35645;DHT22;21764;52.042;6.830;2023-02-20T10:05:18;9.40;99.90
35645;DHT22;21764;52.042;6.830;2023-02-20T10:10:26;9.50;99.90
35645;DHT22;21764;52.042;6.830;2023-02-20T10:21:14;9.40;99.90
35645;DHT22;21764;52.042;6.830;2023-02-20T10:26:25;9.40;99.90
35645;DHT22;21764;52.042;6.830;2023-02-20T10:31:39;9.40;99.90
35645;DHT22;21764;52.042;6.830;2023-02-20T10:36:46;9.40;99.90
35645;DHT22;21764;52.042;6.830;2023-02-20T10:42:15;9.40;99.90
35645;DHT22;21764;52.042;6.830;2023-02-20T10:52:36;9.40;99.90
35645;DHT22;21764;52.042;6.830;2023-02-20T10:57:59;9.40;99.90
35645;DHT22;21764;52.042;6.830;2023-02-20T11:03:06;9.40;99.90
35645;DHT22;21764;52.042;6.830;2023-02-20T11:08:08;9.30;99.90
35645;DHT22;21764;52.042;6.830;2023-02-20T11:13:14;9.30;99.90
35645;DHT22;21764;52.042;6.830;2023-02-20T11:18:23;9.30;99.90
35645;DHT22;21764;52.042;6.830;2023-02-20T11:23:40;9.40;99.90
35645;DHT22;21764;52.042;6.830;2023-02-20T11:28:42;9.50;99.90
35645;DHT22;21764;52.042;6.830;2023-02-20T11:33:45;9.60;99.90
35645;DHT22;21764;52.042;6.830;2023-02-20T11:38:48;9.60;99.90
35645;DHT22;21764;52.042;6.830;2023-02-20T11:44:21;9.40;99.90
35645;DHT22;21764;52.042;6.830;2023-02-20T11:49:26;9.40;99.90
35645;DHT22;21764;52.042;6.830;2023-02-20T11:54:27;9.20;99.90
35645;DHT22;21764;52.042;6.830;2023-02-20T11:59:38;9.10;99.90
35645;DHT22;21764;52.042;6.830;2023-02-20T12:04:39;9.10;99.90
35645;DHT22;21764;52.042;6.830;2023-02-20T12:09:41;9.10;99.90
35645;DHT22;21764;52.042;6.830;2023-02-20T12:14:43;8.90;99.90
35645;DHT22;21764;52.042;6.830;2023-02-20T12:20:02;9.00;99.90
35645;DHT22;21764;52.042;6.830;2023-02-20T12:41:07;9.00;99.90
35645;DHT22;21764;52.042;6.830;2023-02-20T12:51:56;9.20;99.90
35645;DHT22;21764;52.042;6.830;2023-02-20T12:57:06;9.50;99.90
35645;DHT22;21764;52.042;6.830;2023-02-20T13:02:23;9.40;99.90
35645;DHT22;21764;52.042;6.830;2023-02-20T13:07:41;9.20;99.90
35645;DHT22;21764;52.042;6.830;2023-02-20T13:12:45;9.30;99.90
35645;DHT22;21764;52.042;6.830;2023-02-20T13:18:03;9.20;99.90
35645;DHT22;21764;52.042;6.830;2023-02-20T13:23:27;9.30;99.90
35645;DHT22;21764;52.042;6.830;2023-02-20T13:28:39;9.40;99.90
35645;DHT22;21764;52.042;6.830;2023-02-20T13:33:50;9.40;99.90
35645;DHT22;21764;52.042;6.830;2023-02-20T13:54:46;9.50;99.90
35645;DHT22;21764;52.042;6.830;2023-02-20T13:59:49;9.50;99.90
35645;DHT22;21764;52.042;6.830;2023-02-20T14:04:52;9.60;99.90
35645;DHT22;21764;52.042;6.830;2023-02-20T14:10:00;9.60;99.90
35645;DHT22;21764;52.042;6.830;2023-02-20T14:15:03;9.60;99.90
35645;DHT22;21764;52.042;6.830;2023-02-20T14:20:05;9.50;99.90
35645;DHT22;21764;52.042;6.830;2023-02-20T14:30:18;9.40;99.90
35645;DHT22;21764;52.042;6.830;2023-02-20T14:40:39;9.40;99.90
35645;DHT22;21764;52.042;6.830;2023-02-20T14:45:41;9.50;99.90
35645;DHT22;21764;52.042;6.830;2023-02-20T14:50:43;9.40;99.90
35645;DHT22;21764;52.042;6.830;2023-02-20T14:55:44;9.40;99.90
35645;DHT22;21764;52.042;6.830;2023-02-20T15:00:45;9.40;99.90
35645;DHT22;21764;52.042;6.830;2023-02-20T15:05:48;9.40;99.90
35645;DHT22;21764;52.042;6.830;2023-02-20T15:10:54;9.40;99.90
35645;DHT22;21764;52.042;6.830;2023-02-20T15:21:12;9.40;99.90
35645;DHT22;21764;52.042;6.830;2023-02-20T15:26:31;9.30;99.90
35645;DHT22;21764;52.042;6.830;2023-02-20T15:31:32;9.30;99.90
35645;DHT22;21764;52.042;6.830;2023-02-20T15:36:32;9.30;99.90
35645;DHT22;21764;52.042;6.830;2023-02-20T15:41:33;9.30;99.90
35645;DHT22;21764;52.042;6.830;2023-02-20T15:46:34;9.30;99.90
35645;DHT22;21764;52.042;6.830;2023-02-20T15:51:38;9.30;99.90
35645;DHT22;21764;52.042;6.830;2023-02-20T15:56:39;9.30;99.90
35645;DHT22;21764;52.042;6.830;2023-02-20T16:01:40;9.30;99.90
35645;DHT22;21764;52.042;6.830;2023-02-20T16:06:40;9.30;99.90
35645;DHT22;21764;52.042;6.830;2023-02-20T16:11:45;9.20;99.90
35645;DHT22;21764;52.042;6.830;2023-02-20T16:16:49;9.20;99.90
35645;DHT22;21764;52.042;6.830;2023-02-20T16:21:50;9.20;99.90
35645;DHT22;21764;52.042;6.830;2023-02-20T16:26:52;9.20;99.90
35645;DHT22;21764;52.042;6.830;2023-02-20T16:37:00;9.10;99.90
35645;DHT22;21764;52.042;6.830;2023-02-20T16:42:27;9.10;99.90
35645;DHT22;21764;52.042;6.830;2023-02-20T16:47:28;9.10;99.90
35645;DHT22;21764;52.042;6.830;2023-02-20T16:52:40;9.10;99.90
35645;DHT22;21764;52.042;6.830;2023-02-20T16:57:40;9.10;99.90
35645;DHT22;21764;52.042;6.830;2023-02-20T17:02:41;9.00;99.90
35645;DHT22;21764;52.042;6.830;2023-02-20T17:07:42;9.00;99.90
35645;DHT22;21764;52.042;6.830;2023-02-20T17:12:43;9.00;99.90
35645;DHT22;21764;52.042;6.830;2023-02-20T17:17:44;9.00;99.90
35645;DHT22;21764;52.042;6.830;2023-02-20T17:22:47;9.10;99.90
35645;DHT22;21764;52.042;6.830;2023-02-20T17:27:50;9.00;99.90
35645;DHT22;21764;52.042;6.830;2023-02-20T17:32:51;9.00;99.90
35645;DHT22;21764;52.042;6.830;2023-02-20T17:37:52;9.00;99.90
35645;DHT22;21764;52.042;6.830;2023-02-20T17:42:53;9.00;99.90
35645;DHT22;21764;52.042;6.830;2023-02-20T17:47:53;9.00;99.90
35645;DHT22;21764;52.042;6.830;2023-02-20T17:52:54;9.00;99.90
35645;DHT22;21764;52.042;6.830;2023-02-20T17:57:56;8.90;99.90
35645;DHT22;21764;52.042;6.830;2023-02-20T18:02:57;8.90;99.90
35645;DHT22;21764;52.042;6.830;2023-02-20T18:07:58;8.90;99.90
35645;DHT22;21764;52.042;6.830;2023-02-20T18:12:58;8.90;99.90
35645;DHT22;21764;52.042;6.830;2023-02-20T18:18:03;8.90;99.90
35645;DHT22;21764;52.042;6.830;2023-02-20T18:23:03;8.90;99.90
35645;DHT22;21764;52.042;6.830;2023-02-20T18:28:04;8.90;99.90
35645;DHT22;21764;52.042;6.830;2023-02-20T18:33:05;8.90;99.90
35645;DHT22;21764;52.042;6.830;2023-02-20T18:38:05;8.90;99.90
35645;DHT22;21764;52.042;6.830;2023-02-20T18:43:06;8.90;99.90
35645;DHT22;21764;52.042;6.830;2023-02-20T18:48:07;8.90;99.90
35645;DHT22;21764;52.042;6.830;2023-02-20T18:53:08;8.90;99.90
35645;DHT22;21764;52.042;6.830;2023-02-20T18:58:09;9.00;99.90
35645;DHT22;21764;52.042;6.830;2023-02-20T19:03:09;9.00;99.90
35645;DHT22;21764;52.042;6.830;2023-02-20T19:08:10;9.00;99.90
35645;DHT22;21764;52.042;6.830;2023-02-20T19:13:11;8.90;99.90
35645;DHT22;21764;52.042;6.830;2023-02-20T19:18:11;9.00;99.90
35645;DHT22;21764;52.042;6.830;2023-02-20T19:23:12;8.90;99.90
35645;DHT22;21764;52.042;6.830;2023-02-20T19:28:13;8.90;99.90
35645;DHT22;21764;52.042;6.830;2023-02-20T19:33:14;8.90;99.90
35645;DHT22;21764;52.042;6.830;2023-02-20T19:38:15;8.90;99.90
35645;DHT22;21764;52.042;6.830;2023-02-20T19:43:16;8.90;99.90
35645;DHT22;21764;52.042;6.830;2023-02-20T19:48:17;8.90;99.90
35645;DHT22;21764;52.042;6.830;2023-02-20T19:53:18;8.90;99.90
35645;DHT22;21764;52.042;6.830;2023-02-20T19:58:19;8.90;99.90
35645;DHT22;21764;52.042;6.830;2023-02-20T20:03:19;8.90;99.90
35645;DHT22;21764;52.042;6.830;2023-02-20T20:08:20;8.90;99.90
35645;DHT22;21764;52.042;6.830;2023-02-20T20:13:21;8.90;99.90
35645;DHT22;21764;52.042;6.830;2023-02-20T20:18:22;9.00;99.90
35645;DHT22;21764;52.042;6.830;2023-02-20T20:23:23;8.90;99.90
35645;DHT22;21764;52.042;6.830;2023-02-20T20:28:23;8.90;99.90
35645;DHT22;21764;52.042;6.830;2023-02-20T20:33:24;8.90;99.90
35645;DHT22;21764;52.042;6.830;2023-02-20T20:38:25;8.90;99.90
35645;DHT22;21764;52.042;6.830;2023-02-20T20:43:25;8.90;99.90
35645;DHT22;21764;52.042;6.830;2023-02-20T20:48:27;9.00;99.90
35645;DHT22;21764;52.042;6.830;2023-02-20T20:53:29;9.00;99.90
35645;DHT22;21764;52.042;6.830;2023-02-20T20:58:29;9.00;99.90
35645;DHT22;21764;52.042;6.830;2023-02-20T21:03:30;9.00;99.90
35645;DHT22;21764;52.042;6.830;2023-02-20T21:08:31;9.00;99.90
35645;DHT22;21764;52.042;6.830;2023-02-20T21:13:33;9.00;99.90
35645;DHT22;21764;52.042;6.830;2023-02-20T21:18:33;9.10;99.90
35645;DHT22;21764;52.042;6.830;2023-02-20T21:23:34;9.00;99.90
35645;DHT22;21764;52.042;6.830;2023-02-20T21:28:35;9.10;99.90
35645;DHT22;21764;52.042;6.830;2023-02-20T21:33:35;9.10;99.90
35645;DHT22;21764;52.042;6.830;2023-02-20T21:38:36;9.10;99.90
35645;DHT22;21764;52.042;6.830;2023-02-20T21:43:37;9.10;99.90
35645;DHT22;21764;52.042;6.830;2023-02-20T21:49:07;9.10;99.90
35645;DHT22;21764;52.042;6.830;2023-02-20T21:54:08;9.10;99.90
35645;DHT22;21764;52.042;6.830;2023-02-20T21:59:08;9.10;99.90
35645;DHT22;21764;52.042;6.830;2023-02-20T22:04:10;9.10;99.90
35645;DHT22;21764;52.042;6.830;2023-02-20T22:09:13;9.10;99.90
35645;DHT22;21764;52.042;6.830;2023-02-20T22:14:32;9.10;99.90
35645;DHT22;21764;52.042;6.830;2023-02-20T22:19:53;9.10;99.90
35645;DHT22;21764;52.042;6.830;2023-02-20T22:25:12;9.10;99.90
35645;DHT22;21764;52.042;6.830;2023-02-20T22:30:31;9.10;99.90
35645;DHT22;21764;52.042;6.830;2023-02-20T22:35:50;9.10;99.90
35645;DHT22;21764;52.042;6.830;2023-02-20T22:41:09;9.10;99.90
35645;DHT22;21764;52.042;6.830;2023-02-20T22:46:28;9.10;99.90
35645;DHT22;21764;52.042;6.830;2023-02-20T22:51:48;9.10;99.90
35645;DHT22;21764;52.042;6.830;2023-02-20T22:57:08;9.10;99.90
35645;DHT22;21764;52.042;6.830;2023-02-20T23:02:28;9.10;99.90
35645;DHT22;21764;52.042;6.830;2023-02-20T23:07:47;9.10;99.90
35645;DHT22;21764;52.042;6.830;2023-02-20T23:13:06;9.10;99.90
35645;DHT22;21764;52.042;6.830;2023-02-20T23:18:25;9.10;99.90
35645;DHT22;21764;52.042;6.830;2023-02-20T23:23:46;9.10;99.90
35645;DHT22;21764;52.042;6.830;2023-02-20T23:29:05;9.10;99.90
35645;DHT22;21764;52.042;6.830;2023-02-20T23:34:25;9.10;99.90
35645;DHT22;21764;52.042;6.830;2023-02-20T23:39:45;9.10;99.90
35645;DHT22;21764;52.042;6.830;2023-02-20T23:45:05;9.10;99.90
35645;DHT22;21764;52.042;6.830;2023-02-20T23:50:25;9.10;99.90
35645;DHT22;21764;52.042;6.830;2023-02-20T23:55:44;9.10;99.90
